Lakeway's Hourly Summary for Thursday, March 16, 2017
Hour Temp
(f)
RH
(%)
Solar Rad.
(MJ/m2)
Rainfall
(in)
Wind
(mph)
3/16/2017 12:00 AM 61 82 0 0 3.12
3/16/2017 1:00 AM 60 93 0 0 3.25
3/16/2017 2:00 AM 59 100 0 0 3.22
3/16/2017 3:00 AM 58 100 0 0 3.31
3/16/2017 4:00 AM 57 100 0 0 2.43
3/16/2017 5:00 AM 56 100 0 0 1.88
3/16/2017 6:00 AM 56 100 0 0 1.65
3/16/2017 7:00 AM 56 100 0 0 0.84
3/16/2017 8:00 AM 56 100 0 0 1.52
3/16/2017 9:00 AM 56 100 0.11 0 2.01
3/16/2017 10:00 AM 58 100 0.31 0 2.03
3/16/2017 11:00 AM 60 100 0.4 0 1.72
3/16/2017 12:00 PM 62 100 0.43 0 1.5
3/16/2017 1:00 PM 64 100 0.56 0 1.98
3/16/2017 2:00 PM 66 82 0.86 0 1.74
3/16/2017 3:00 PM 71 66 1.29 0 2.84
3/16/2017 4:00 PM 74 60 1.58 0 2.7
3/16/2017 5:00 PM 77 50 1.67 0 2.25
3/16/2017 6:00 PM 77 51 1.35 0 3.96
3/16/2017 7:00 PM 75 57 0.64 0 3.82
3/16/2017 8:00 PM 72 61 0.07 0 2.81
3/16/2017 9:00 PM 69 74 0 0 2.47
3/16/2017 10:00 PM 68 82 0 0 3.73
3/16/2017 11:00 PM 66 85 0 0 4
Data Summary 63 85 9.27 0.00 2.53